Airfield :
LOGIN :

Register | Disclaimer

   EN    FR    IT 

 










Legend :    VFR   Marginal VFR   IFR   Intensive IFR   Very Intensive IFR
Visi :
Ceiling :
>= 8 km
>= 3000ft
5 to 8 km
1000 to 3000 ft
1500m to 5 km
500 to 1000 ft
800 to 1500m
200 to 500 ft
< 800m
< 200 ft
Symbols :   Thunderstorms  Fog  Heavy snow  Heavy precipitations  Wind > 20 kt
SIGMETs :     Misc.  Thunderstorms  Icing  Turbulence  Mountain Waves  Volcanic Ashes






- Airport Elevation : 0 ft
- IATA code : QFR


LIRH - Frosinone Military

CURRENT METAR :
  • 011355Z 25002KT 9999 SCT035 15/07 Q1013 RMK SCT MON LIB NC VIS MIN 9999 WIND THR16 29001KT BLU

EXPIRED METARs :
  • 011255Z 21003KT 9999 SCT035 15/06 Q1013 RMK SCT MON LIB NC VIS MIN 9999 WIND THR16 21002KT BLU
  • 011155Z 21002KT 9999 SCT035 14/05 Q1013
  • 011055Z 21002KT 9999 FEW035 13/05 Q1013

TAF TAF LIRH
Valid from the 01 at 12:00 until the 01 at 21:00 UTC


011100Z 0112/0121 16006KT 9999 SCT035
BECMG 0118/0120 BKN030



MET'MAP, your aeronautical weather chart ! - Copyright ORBIFLY December 2007 - Disclaimer

ORBIFLY MET'MAP TEAM :

Programming & Development : Alexandra Zaïnal
Original concept : Baudouin d'Aumeries
Technical & hardware support : Manuel Goepfert
Assistance : Marc-Olivier Méhu




SOURCES & CREDITS :

   NOAA